De Haan, Belgium
Current Conditions -  °F | °C
As of 2:20 AM on Monday 24 Nov 2014 (Local Time) from EBOS Reporting Station
Broken Clouds Broken Clouds  
Wind Chill:   Ceiling: 3000
Heat Index:   Visibility: 6mi
Dew Point:   Wind: 14mph
Humidity: 87%   Direction: 320°NW
Pressure: 30.15"   Gusts: NA
Location:  51.27°N, 3.03°E
Report Text: EBOS 240120Z 32012KT 9999 SCT018 BKN030 09/07 Q1021 TEMPO TL0200 BKN010
Loading
Personal Weather Stations






























Interactive Weather Map New forecast layout! Learn more

10-Day Weather Forecast

Advertisements
Track Severe Weather on mobile